.
WxDataArchive / Data Records for 2015-05-08
2015-05-07 May 2015 2015-05-09

Data Records for Friday, 08 May 2015

Time	Temp	Chill	HIndex	Humid	Dewpt	 Wind 	HiWind	WindDir	Rain 	Barom
-----	----	-----	------	-----	-----	------	------	-------	-----	-----
00:00	66.4	66.4	66.4	72	57.1	0	0	---	0.00	29.957 
00:05	66.3	66.3	66.3	72	57.0	0	0	---	0.00	29.957 
00:10	66.1	66.1	66.1	72	56.8	0	0	---	0.00	29.957 
00:15	66.1	66.1	66.1	72	56.8	0	0	---	0.00	29.952 
00:20	66.1	66.1	66.1	72	56.8	0	0	---	0.00	29.952 
00:25	66.0	66.0	66.0	72	56.7	0	0	---	0.00	29.952 
00:30	66.0	66.0	66.0	72	56.7	0	0	---	0.00	29.956 
00:35	66.0	66.0	66.0	72	56.7	0	0	---	0.00	29.956 
00:40	66.0	66.0	66.0	72	56.7	0	0	---	0.00	29.956 
00:45	66.0	66.0	66.0	72	56.7	0	0	---	0.00	29.960 
00:50	65.8	65.8	65.8	73	56.9	0	0	---	0.00	29.960 
00:55	65.8	65.8	65.8	73	56.9	0	0	---	0.00	29.960 
01:00	65.6	65.6	65.6	73	56.7	0	0	---	0.00	29.961 
01:05	65.5	65.5	65.5	74	57.0	0	0	---	0.00	29.961 
01:10	65.3	65.3	65.3	74	56.8	0	0	---	0.00	29.961 
01:15	65.2	65.2	65.2	74	56.7	0	0	---	0.00	29.965 
01:20	65.2	65.2	65.2	73	56.3	0	0	---	0.00	29.965 
01:25	65.2	65.2	65.2	73	56.3	0	0	---	0.00	29.965 
01:30	65.2	65.2	65.2	73	56.3	0	0	---	0.00	29.966 
01:35	65.3	65.3	65.3	73	56.4	0	0	---	0.00	29.966 
01:40	65.5	65.5	65.5	72	56.2	0	0	---	0.00	29.966 
01:45	65.6	65.6	65.6	72	56.3	0	0	---	0.00	29.967 
01:50	65.6	65.6	65.6	71	55.9	0	0	---	0.00	29.967 
01:55	65.8	65.8	65.8	71	56.1	0	0	---	0.00	29.967 
02:00	65.8	65.8	65.8	71	56.1	0	0	---	0.00	29.964 
02:05	65.8	65.8	65.8	71	56.1	0	0	---	0.00	29.964 
02:10	65.6	65.6	65.6	71	55.9	0	0	---	0.00	29.964 
02:15	65.5	65.5	65.5	71	55.8	0	0	---	0.00	29.960 
02:20	65.3	65.3	65.3	73	56.4	0	0	---	0.00	29.960 
02:25	65.0	65.0	65.0	73	56.1	0	0	---	0.00	29.960 
02:30	64.8	64.8	64.8	73	55.9	0	0	---	0.00	29.957 
02:35	64.7	64.7	64.7	74	56.2	0	0	---	0.00	29.957 
02:40	64.7	64.7	64.7	73	55.8	0	0	---	0.00	29.957 
02:45	64.5	64.5	64.5	73	55.6	0	0	---	0.00	29.957 
02:50	64.3	64.3	64.3	74	55.8	0	0	---	0.00	29.957 
02:55	64.2	64.2	64.2	75	56.1	0	0	---	0.00	29.957 
03:00	63.9	63.9	63.9	76	56.2	0	0	---	0.00	29.954 
03:05	63.5	63.5	63.5	77	56.2	0	0	---	0.00	29.954 
03:10	63.2	63.2	63.2	77	55.9	0	0	---	0.00	29.954 
03:15	62.9	62.9	62.9	78	55.9	0	0	---	0.00	29.955 
03:20	62.7	62.7	62.7	78	55.7	0	0	---	0.00	29.955 
03:25	62.4	62.4	62.4	79	55.8	0	0	---	0.00	29.955 
03:30	62.3	62.3	62.3	79	55.7	0	0	---	0.00	29.956 
03:35	62.0	62.0	62.0	80	55.8	0	0	---	0.00	29.956 
03:40	61.6	61.6	61.6	80	55.4	0	0	---	0.00	29.956 
03:45	61.5	61.5	61.5	81	55.6	0	0	---	0.00	29.956 
03:50	61.2	61.2	61.2	81	55.3	0	0	---	0.00	29.956 
03:55	61.0	61.0	61.0	81	55.1	0	0	---	0.00	29.956 
04:00	60.9	60.9	60.9	81	55.0	0	0	---	0.00	29.956 
04:05	60.5	60.5	60.5	82	55.0	0	0	---	0.00	29.956 
04:10	60.4	60.4	60.4	82	54.9	0	0	---	0.00	29.956 
04:15	60.2	60.2	60.2	83	55.0	0	0	---	0.00	29.953 
04:20	60.2	60.2	60.2	83	55.0	0	0	---	0.00	29.953 
04:25	60.1	60.1	60.1	84	55.2	0	0	---	0.00	29.953 
04:30	59.9	59.9	59.9	84	55.0	0	0	---	0.00	29.955 
04:35	59.8	59.8	59.8	84	55.0	0	0	---	0.00	29.955 
04:40	59.6	59.6	59.6	84	54.8	0	0	---	0.00	29.955 
04:45	59.5	59.5	59.5	84	54.7	0	0	---	0.00	29.959 
04:50	59.3	59.3	59.3	84	54.5	0	0	---	0.00	29.959 
04:55	59.2	59.2	59.2	84	54.4	0	0	---	0.00	29.959 
05:00	58.9	58.9	58.9	85	54.4	0	0	---	0.00	29.964 
05:05	58.7	58.7	58.7	85	54.2	0	0	---	0.00	29.964 
05:10	58.6	58.6	58.6	85	54.1	0	0	---	0.00	29.964 
05:15	58.4	58.4	58.4	86	54.2	0	0	---	0.00	29.967 
05:20	58.3	58.3	58.3	86	54.1	0	0	---	0.00	29.967 
05:25	58.1	58.1	58.1	86	53.9	0	0	---	0.00	29.967 
05:30	58.0	58.0	58.0	86	53.8	0	0	---	0.00	29.969 
05:35	57.8	57.8	57.8	87	54.0	0	0	---	0.00	29.969 
05:40	57.6	57.6	57.6	87	53.8	0	0	---	0.00	29.969 
05:45	57.5	57.5	57.5	87	53.7	0	0	---	0.00	29.971 
05:50	57.5	57.5	57.5	87	53.7	0	0	---	0.00	29.971 
05:55	57.3	57.3	57.3	87	53.5	0	0	---	0.00	29.971 
06:00	57.2	57.2	57.2	88	53.7	0	0	---	0.00	29.971 
06:05	57.3	57.3	57.3	88	53.8	0	0	---	0.00	29.971 
06:10	57.5	57.5	57.5	88	54.0	0	0	---	0.00	29.971 
06:15	57.6	57.6	57.6	88	54.1	0	0	---	0.00	29.971 
06:20	57.5	57.5	57.5	88	54.0	0	0	---	0.00	29.971 
06:25	57.3	57.3	57.3	88	53.8	0	0	---	0.00	29.971 
06:30	57.2	57.2	57.2	88	53.7	0	0	---	0.00	29.976 
06:35	57.2	57.2	57.2	88	53.7	0	0	---	0.00	29.976 
06:40	57.0	57.0	57.0	88	53.5	0	0	---	0.00	29.976 
06:45	57.0	57.0	57.0	89	53.8	0	0	---	0.00	29.980 
06:50	57.0	57.0	57.0	89	53.8	0	0	---	0.00	29.980 
06:55	57.0	57.0	57.0	89	53.8	0	0	---	0.00	29.980 
07:00	57.2	57.2	57.2	89	54.0	0	0	---	0.00	29.986 
07:05	57.3	57.3	57.3	89	54.1	0	0	---	0.00	29.986 
07:10	58.1	58.1	58.1	89	54.9	0	0	---	0.00	29.986 
07:15	58.7	58.7	58.7	88	55.2	0	0	---	0.00	29.989 
07:20	59.3	59.3	59.3	88	55.7	0	0	---	0.00	29.989 
07:25	59.9	59.9	59.9	86	55.7	0	0	---	0.00	29.989 
07:30	60.5	60.5	60.5	85	56.0	0	0	---	0.00	29.989 
07:35	61.2	61.2	61.2	84	56.3	0	0	---	0.00	29.989 
07:40	62.0	62.0	62.0	82	56.4	0	0	---	0.00	29.989 
07:45	62.7	62.7	62.7	81	56.8	0	0	---	0.00	29.988 
07:50	63.5	63.5	63.5	78	56.5	0	1	90	0.00	29.988 
07:55	64.3	64.3	64.3	76	56.6	0	0	---	0.00	29.988 
08:00	65.2	65.2	65.2	74	56.7	0	1	90	0.00	29.992 
08:05	65.6	65.6	65.6	72	56.3	0	0	---	0.00	29.992 
08:10	66.1	66.1	66.1	71	56.4	0	1	90	0.00	29.992 
08:15	66.8	66.8	66.8	71	57.1	0	0	---	0.00	29.995 
08:20	67.4	67.4	67.4	69	56.9	0	0	---	0.00	29.995 
08:25	67.9	67.9	67.9	69	57.3	0	0	---	0.00	29.995 
08:30	68.6	68.6	68.6	67	57.2	0	0	---	0.00	29.999 
08:35	69.4	69.4	69.4	65	57.1	0	1	90	0.00	29.999 
08:40	70.1	70.1	70.1	63	56.9	0	1	90	0.00	29.999 
08:45	70.8	70.8	70.8	62	57.1	0	1	90	0.00	29.996 
08:50	70.9	70.9	70.9	60	56.3	0	1	90	0.00	29.996 
08:55	71.1	71.1	71.1	61	57.0	0	1	90	0.00	29.996 
09:00	71.6	71.6	71.6	60	57.0	0	1	90	0.00	29.996 
09:05	72.1	72.1	72.1	58	56.5	0	1	90	0.00	29.996 
09:10	72.8	72.8	72.8	57	56.7	0	1	90	0.00	29.996 
09:15	73.3	73.3	73.3	57	57.1	0	2	90	0.00	29.997 
09:20	73.9	73.9	73.9	56	57.2	0	2	90	0.00	29.997 
09:25	74.2	74.2	74.2	55	57.0	0	2	90	0.00	29.997 
09:30	75.1	75.1	77.6	54	57.3	0	1	90	0.00	29.990 
09:35	75.6	75.6	77.9	52	56.7	0	1	90	0.00	29.990 
09:40	75.8	75.8	78.0	52	56.9	0	2	68	0.00	29.990 
09:45	76.1	76.1	78.1	53	57.7	0	2	68	0.00	29.991 
09:50	76.3	76.3	78.2	50	56.3	1	3	68	0.00	29.991 
09:55	76.5	76.5	78.3	50	56.5	1	4	248	0.00	29.991 
10:00	76.7	76.7	78.5	52	57.7	0	2	248	0.00	29.992 
10:05	76.8	76.8	78.5	51	57.3	0	3	248	0.00	29.992 
10:10	77.0	77.0	78.6	50	56.9	1	4	248	0.00	29.992 
10:15	77.6	77.6	79.0	51	58.0	0	1	248	0.00	29.995 
10:20	77.6	77.6	79.0	51	58.0	1	3	248	0.00	29.995 
10:25	77.7	77.7	79.1	52	58.6	1	3	292	0.00	29.995 
10:30	78.1	78.1	79.4	52	59.0	0	4	292	0.00	29.993 
10:35	78.1	78.1	79.4	51	58.5	1	3	248	0.00	29.993 
10:40	78.3	78.3	79.6	52	59.2	0	3	248	0.00	29.993 
10:45	78.8	78.8	79.9	51	59.1	0	2	248	0.00	29.987 
10:50	79.4	79.4	80.5	52	60.2	0	2	248	0.00	29.987 
10:55	79.4	79.4	80.3	50	59.1	1	2	248	0.00	29.987 
11:00	79.6	79.6	80.5	50	59.3	0	3	248	0.00	29.986 
11:05	79.8	79.8	80.7	51	60.0	1	4	248	0.00	29.986 
11:10	80.1	80.1	80.8	49	59.2	1	3	0	0.00	29.986 
11:15	80.1	80.1	80.9	50	59.8	1	5	292	0.00	29.988 
11:20	80.3	80.3	81.2	51	60.5	1	5	292	0.00	29.988 
11:25	80.7	80.7	81.6	51	60.9	1	4	292	0.00	29.988 
11:30	80.9	80.9	81.4	48	59.3	1	5	135	0.00	29.987 
11:35	81.1	81.1	81.7	49	60.1	1	3	270	0.00	29.987 
11:40	81.2	81.2	81.7	48	59.6	1	4	270	0.00	29.987 
11:45	81.4	81.4	82.0	49	60.4	1	5	292	0.00	29.983 
11:50	82.0	82.0	82.6	49	60.9	0	3	292	0.00	29.983 
11:55	82.4	82.4	83.2	50	61.9	1	3	292	0.00	29.983 
12:00	82.8	82.8	83.3	48	61.1	1	4	68	0.00	29.983 
12:05	83.0	83.0	83.2	46	60.1	1	3	270	0.00	29.983 
12:10	83.4	83.4	83.7	46	60.4	0	2	270	0.00	29.983 
12:15	83.6	83.6	84.2	48	61.8	0	2	270	0.00	29.981 
12:20	83.6	83.6	83.9	46	60.6	1	5	270	0.00	29.981 
12:25	83.6	83.6	83.9	46	60.6	1	4	90	0.00	29.981 
12:30	83.6	83.6	83.9	46	60.6	0	2	90	0.00	29.981 
12:35	83.6	83.6	83.7	45	60.0	1	4	90	0.00	29.981 
12:40	83.8	83.8	83.9	45	60.2	1	5	292	0.00	29.981 
12:45	83.6	83.6	84.2	48	61.8	1	3	292	0.00	29.980 
12:50	84.0	84.0	84.3	46	61.0	1	5	292	0.00	29.980 
12:55	84.3	84.3	84.1	43	59.3	1	9	270	0.00	29.980 
13:00	84.1	84.1	83.9	43	59.2	0	2	270	0.00	29.974 
13:05	84.1	84.1	84.3	45	60.4	1	3	270	0.00	29.974 
13:10	84.1	84.1	84.1	44	59.8	1	5	270	0.00	29.974 
13:15	83.8	83.8	83.9	45	60.2	1	4	270	0.00	29.968 
13:20	83.8	83.8	84.9	50	63.1	1	4	45	0.00	29.968 
13:25	84.0	84.0	84.0	44	59.7	1	5	270	0.00	29.968 
13:30	83.8	83.8	83.6	43	58.9	1	5	248	0.00	29.964 
13:35	83.6	83.6	83.7	45	60.0	1	3	248	0.00	29.964 
13:40	83.6	83.6	83.4	43	58.7	1	4	248	0.00	29.964 
13:45	84.1	84.1	84.4	46	61.1	1	3	248	0.00	29.962 
13:50	84.5	84.5	84.1	42	58.9	1	3	270	0.00	29.962 
13:55	84.5	84.5	84.1	42	58.9	1	4	90	0.00	29.962 
14:00	84.7	84.7	84.4	42	59.0	1	5	270	0.00	29.954 
14:05	84.3	84.3	84.3	44	60.0	0	2	68	0.00	29.954 
14:10	84.3	84.3	84.1	43	59.3	1	5	90	0.00	29.954 
14:15	84.3	84.3	84.1	43	59.3	0	2	90	0.00	29.949 
14:20	84.3	84.3	84.5	45	60.6	1	3	90	0.00	29.949 
14:25	84.9	84.9	84.8	43	59.9	1	4	90	0.00	29.949 
14:30	84.7	84.7	84.6	43	59.7	2	6	112	0.00	29.940 
14:35	84.3	84.3	84.1	43	59.3	2	6	90	0.00	29.940 
14:40	84.3	84.3	83.9	42	58.7	1	3	90	0.00	29.940 
14:45	84.7	84.7	84.6	43	59.7	1	3	90	0.00	29.936 
14:50	85.1	85.1	84.6	41	58.7	0	2	0	0.00	29.936 
14:55	85.3	85.3	84.7	40	58.2	1	3	292	0.00	29.936 
15:00	85.3	85.3	84.8	41	58.9	1	3	270	0.00	29.933 
15:05	85.5	85.5	84.7	39	57.7	0	2	22	0.00	29.933 
15:10	85.7	85.7	85.3	41	59.3	0	2	45	0.00	29.933 
15:15	85.1	85.1	84.6	41	58.7	2	7	90	0.00	29.932 
15:20	84.9	84.9	84.2	40	57.8	1	3	270	0.00	29.932 
15:25	85.1	85.1	84.6	41	58.7	0	2	270	0.00	29.932 
15:30	85.7	85.7	85.3	41	59.3	1	4	270	0.00	29.925 
15:35	85.9	85.9	84.9	38	57.3	1	2	270	0.00	29.925 
15:40	86.1	86.1	85.4	39	58.2	0	2	270	0.00	29.925 
15:45	86.3	86.3	85.2	37	56.9	1	4	270	0.00	29.920 
15:50	86.5	86.5	85.8	39	58.6	1	3	270	0.00	29.920 
15:55	86.3	86.3	85.8	40	59.1	0	3	292	0.00	29.920 
16:00	85.9	85.9	85.3	40	58.7	1	5	90	0.00	29.916 
16:05	85.7	85.7	84.9	39	57.9	0	3	112	0.00	29.916 
16:10	85.7	85.7	84.7	38	57.1	1	3	112	0.00	29.916 
16:15	86.1	86.1	85.4	39	58.2	0	3	112	0.00	29.916 
16:20	86.5	86.5	85.4	37	57.1	1	3	112	0.00	29.916 
16:25	86.3	86.3	85.0	36	56.2	1	6	270	0.00	29.916 
16:30	85.9	85.9	84.9	38	57.3	0	3	270	0.00	29.911 
16:35	85.3	85.3	84.5	39	57.5	1	3	270	0.00	29.911 
16:40	84.7	84.7	83.8	39	57.0	0	3	270	0.00	29.911 
16:45	84.5	84.5	83.8	40	57.5	0	2	270	0.00	29.907 
16:50	84.7	84.7	84.0	40	57.7	0	2	270	0.00	29.907 
16:55	85.3	85.3	85.5	44	60.9	0	2	270	0.00	29.907 
17:00	85.5	85.5	84.7	39	57.7	1	3	270	0.00	29.904 
17:05	85.3	85.3	84.3	38	56.8	1	3	270	0.00	29.904 
17:10	85.3	85.3	84.8	41	58.9	0	3	270	0.00	29.904 
17:15	85.7	85.7	85.1	40	58.6	0	2	270	0.00	29.903 
17:20	85.9	85.9	84.7	37	56.6	0	3	270	0.00	29.903 
17:25	85.7	85.7	84.7	38	57.1	0	3	270	0.00	29.903 
17:30	85.5	85.5	84.5	38	57.0	0	1	270	0.00	29.904 
17:35	85.1	85.1	84.3	39	57.3	1	4	112	0.00	29.904 
17:40	84.7	84.7	83.7	38	56.2	0	3	112	0.00	29.904 
17:45	84.3	84.3	83.6	40	57.3	0	1	135	0.00	29.904 
17:50	84.5	84.5	84.0	41	58.2	0	1	135	0.00	29.904 
17:55	84.5	84.5	83.8	40	57.5	1	5	90	0.00	29.904 
18:00	84.3	84.3	83.4	39	56.6	0	3	90	0.00	29.906 
18:05	84.3	84.3	83.6	40	57.3	0	2	22	0.00	29.906 
18:10	84.1	84.1	83.4	40	57.1	0	2	0	0.00	29.906 
18:15	84.0	84.0	83.4	41	57.7	0	1	0	0.00	29.909 
18:20	84.0	84.0	83.4	41	57.7	0	3	0	0.00	29.909 
18:25	84.0	84.0	83.3	40	57.0	0	2	315	0.00	29.909 
18:30	84.0	84.0	83.3	40	57.0	0	3	248	0.00	29.909 
18:35	84.1	84.1	83.6	41	57.8	0	3	225	0.00	29.909 
18:40	84.1	84.1	83.2	39	56.4	0	2	225	0.00	29.909 
18:45	84.3	84.3	83.8	41	58.0	1	4	90	0.00	29.912 
18:50	84.1	84.1	83.4	40	57.1	0	4	68	0.00	29.912 
18:55	84.0	84.0	83.3	40	57.0	0	1	68	0.00	29.912 
19:00	83.6	83.6	83.0	41	57.4	0	3	68	0.00	29.917 
19:05	83.2	83.2	82.8	42	57.7	0	2	68	0.00	29.917 
19:10	82.8	82.8	82.4	42	57.3	0	3	270	0.00	29.917 
19:15	82.6	82.6	82.4	43	57.8	1	6	270	0.00	29.919 
19:20	80.1	80.1	80.6	47	58.0	4	8	292	0.00	29.919 
19:25	77.9	77.9	79.2	51	58.3	2	4	292	0.00	29.919 
19:30	76.5	76.5	78.4	54	58.6	2	4	315	0.00	29.930 
19:35	76.1	76.1	78.1	55	58.7	1	3	315	0.00	29.930 
19:40	75.6	75.6	77.8	56	58.8	1	3	292	0.00	29.930 
19:45	75.3	75.3	77.6	57	59.0	1	3	292	0.00	29.938 
19:50	74.9	74.9	74.9	58	59.1	1	3	292	0.00	29.938 
19:55	74.7	74.7	74.7	59	59.4	0	2	292	0.00	29.938 
20:00	74.6	74.6	74.6	59	59.3	0	1	292	0.00	29.936 
20:05	74.4	74.4	74.4	60	59.6	0	1	292	0.00	29.936 
20:10	74.2	74.2	74.2	60	59.4	0	0	---	0.00	29.936 
20:15	74.0	74.0	74.0	61	59.7	0	0	---	0.00	29.934 
20:20	73.9	73.9	73.9	61	59.6	0	1	292	0.00	29.934 
20:25	73.7	73.7	73.7	62	59.9	0	0	---	0.00	29.934 
20:30	73.5	73.5	73.5	62	59.7	0	1	292	0.00	29.934 
20:35	73.3	73.3	73.3	63	59.9	0	1	292	0.00	29.934 
20:40	73.0	73.0	73.0	64	60.1	0	1	292	0.00	29.934 
20:45	72.8	72.8	72.8	64	59.9	0	0	---	0.00	29.935 
20:50	72.7	72.7	72.7	65	60.2	0	1	292	0.00	29.935 
20:55	72.3	72.3	72.3	65	59.9	0	0	---	0.00	29.935 
21:00	72.3	72.3	72.3	67	60.7	0	0	---	0.00	29.949 
21:05	72.1	72.1	72.1	72	62.6	1	5	68	0.01	29.949 
21:10	71.8	71.8	71.8	74	63.1	0	1	68	0.00	29.949 
21:15	70.9	70.9	70.9	77	63.3	0	1	68	0.00	29.933 
21:20	70.3	70.3	70.3	78	63.1	0	1	68	0.00	29.933 
21:25	69.9	69.9	69.9	80	63.4	0	0	---	0.00	29.933 
21:30	69.4	69.4	69.4	81	63.3	0	0	---	0.00	29.935 
21:35	69.1	69.1	69.1	83	63.7	0	0	---	0.01	29.935 
21:40	68.9	68.9	68.9	84	63.9	0	1	68	0.00	29.935 
21:45	68.8	68.8	68.8	85	64.1	0	1	68	0.00	29.945 
21:50	68.4	68.4	68.4	86	64.0	0	1	68	0.00	29.945 
21:55	68.1	68.1	68.1	87	64.1	0	0	---	0.00	29.945 
22:00	68.1	68.1	68.1	87	64.1	0	1	68	0.00	29.949 
22:05	67.9	67.9	67.9	88	64.2	0	0	---	0.00	29.949 
22:10	67.8	67.8	67.8	88	64.1	0	0	---	0.00	29.949 
22:15	67.8	67.8	67.8	88	64.1	0	1	68	0.00	29.948 
22:20	67.8	67.8	67.8	89	64.4	0	1	68	0.00	29.948 
22:25	67.6	67.6	67.6	88	63.9	0	2	68	0.00	29.948 
22:30	67.3	67.3	67.3	87	63.3	0	2	68	0.00	29.954 
22:35	67.3	67.3	67.3	86	63.0	0	1	68	0.00	29.954 
22:40	67.4	67.4	67.4	86	63.1	2	4	270	0.00	29.954 
22:45	67.4	67.4	67.4	85	62.7	0	2	270	0.00	29.966 
22:50	67.6	67.6	67.6	84	62.6	0	3	225	0.00	29.966 
22:55	67.8	67.8	67.8	82	62.1	0	1	225	0.00	29.966 
23:00	67.8	67.8	67.8	82	62.1	0	2	225	0.00	29.969 
23:05	67.8	67.8	67.8	81	61.7	0	1	225	0.00	29.969 
23:10	67.8	67.8	67.8	81	61.7	0	1	225	0.00	29.969 
23:15	67.8	67.8	67.8	81	61.7	0	0	---	0.00	29.966 
23:20	67.8	67.8	67.8	81	61.7	0	0	---	0.00	29.966 
23:25	67.6	67.6	67.6	82	61.9	0	0	---	0.00	29.966 
23:30	67.6	67.6	67.6	82	61.9	0	1	225	0.00	29.970 
23:35	67.6	67.6	67.6	82	61.9	0	1	225	0.00	29.970 
23:40	67.6	67.6	67.6	82	61.9	0	0	---	0.00	29.970 
23:45	67.4	67.4	67.4	82	61.7	0	1	225	0.00	29.961 
23:50	67.3	67.3	67.3	81	61.3	0	0	---	0.00	29.961 
23:55	67.3	67.3	67.3	81	61.3	0	0	---	0.00	29.961 

CoCoRaHS
IN-AL-39
A2 Web Hosting
Creative Commons License
GoDaddy
search engine by freefind advanced

loaded 2018-11-12 19:29:21 • last modified 2010-11-18 10:43:29
Privacy PolicyDisclaimer
• wx.awcolley.com is powered by PmWiki v.2002016 •
• all content (unless otherwise noted) © 2018 A W Colley